createdAt,value
2023-01-26T00:02:23.604Z,12.70
2023-01-26T00:04:52.044Z,12.15
2023-01-26T00:07:20.434Z,12.13
2023-01-26T00:09:48.852Z,13.68
2023-01-26T00:12:17.237Z,13.73
2023-01-26T00:14:51.678Z,12.90
2023-01-26T00:17:28.084Z,12.65
2023-01-26T00:19:57.613Z,13.13
2023-01-26T00:22:27.202Z,13.23
2023-01-26T00:24:55.356Z,12.82
2023-01-26T00:27:23.744Z,13.05
2023-01-26T00:29:52.159Z,13.23
2023-01-26T00:32:21.651Z,13.73
2023-01-26T00:34:50.079Z,12.73
2023-01-26T00:37:18.492Z,12.98
2023-01-26T00:39:46.913Z,13.15
2023-01-26T00:42:16.022Z,12.77
2023-01-26T00:44:44.750Z,13.82
2023-01-26T00:47:13.977Z,13.55
2023-01-26T00:49:43.469Z,13.00
2023-01-26T00:52:11.852Z,13.05
2023-01-26T00:54:40.294Z,13.35
2023-01-26T00:57:08.678Z,13.32
2023-01-26T00:59:37.063Z,13.35
2023-01-26T01:02:05.783Z,13.27
2023-01-26T01:04:34.280Z,12.50
2023-01-26T01:07:03.784Z,13.52
2023-01-26T01:09:32.192Z,13.15
2023-01-26T01:12:00.603Z,14.48
2023-01-26T01:14:29.012Z,13.75
2023-01-26T01:16:57.519Z,13.85
2023-01-26T01:19:26.010Z,14.23
2023-01-26T01:21:54.376Z,14.00
2023-01-26T01:24:24.007Z,14.10
2023-01-26T01:26:52.418Z,14.05
2023-01-26T01:29:20.831Z,14.18
2023-01-26T01:31:49.236Z,13.20
2023-01-26T01:34:18.347Z,14.45
2023-01-26T01:36:46.739Z,13.80
2023-01-26T01:41:44.313Z,14.23
2023-01-26T01:44:15.151Z,11.05
2023-01-26T01:46:48.547Z,13.82
2023-01-26T01:49:21.478Z,14.35
2023-01-26T01:51:52.981Z,14.52
2023-01-26T01:54:26.277Z,14.32
2023-01-26T01:56:59.203Z,13.57
2023-01-26T01:59:27.711Z,15.05
2023-01-26T02:01:57.821Z,14.00
2023-01-26T02:06:58.236Z,14.80
2023-01-26T02:09:48.076Z,14.43
2023-01-26T02:12:19.977Z,14.55
2023-01-26T02:14:48.406Z,14.60
2023-01-26T02:17:16.781Z,15.15
2023-01-26T02:19:52.576Z,14.93
2023-01-26T02:22:28.516Z,14.20
2023-01-26T02:24:57.801Z,15.05
2023-01-26T02:27:28.238Z,14.80
2023-01-26T02:29:58.028Z,14.85
2023-01-26T02:32:28.264Z,15.10
2023-01-26T02:34:58.142Z,13.88
2023-01-26T02:37:26.568Z,14.50
2023-01-26T02:39:59.878Z,15.55
2023-01-26T02:42:41.950Z,14.73
2023-01-26T02:45:11.983Z,15.80
2023-01-26T02:47:41.185Z,14.68
2023-01-26T02:50:10.238Z,14.70
2023-01-26T02:52:39.462Z,15.20
2023-01-26T02:55:28.603Z,14.90
2023-01-26T02:57:59.673Z,15.15
2023-01-26T03:00:28.804Z,15.02
2023-01-26T03:02:59.775Z,15.73
2023-01-26T03:05:28.246Z,15.95
2023-01-26T03:07:56.936Z,15.20
2023-01-26T03:10:27.130Z,14.90
2023-01-26T03:12:55.594Z,15.30
2023-01-26T03:15:43.873Z,15.15
2023-01-26T03:18:30.889Z,15.85
2023-01-26T03:21:20.681Z,15.35
2023-01-26T03:24:06.985Z,15.38
2023-01-26T03:26:52.911Z,15.23
2023-01-26T03:29:21.302Z,15.25
2023-01-26T03:31:50.876Z,15.30
2023-01-26T03:34:18.931Z,15.80
2023-01-26T03:36:47.313Z,15.07
2023-01-26T03:39:35.682Z,15.38
2023-01-26T03:42:21.805Z,16.40
2023-01-26T03:45:07.907Z,15.45
2023-01-26T03:47:56.663Z,15.82
2023-01-26T03:50:42.147Z,15.50
2023-01-26T03:53:35.013Z,15.75
2023-01-26T03:56:22.018Z,15.80
2023-01-26T03:58:52.989Z,15.88
2023-01-26T04:01:26.247Z,16.45
2023-01-26T04:04:15.060Z,14.95
2023-01-26T04:07:02.213Z,15.40
2023-01-26T04:09:30.655Z,15.75
2023-01-26T04:11:59.047Z,14.73
2023-01-26T04:14:49.698Z,16.45
2023-01-26T04:17:36.267Z,15.40
2023-01-26T04:20:23.586Z,15.07
2023-01-26T04:22:52.088Z,15.50
2023-01-26T04:25:22.556Z,16.05
2023-01-26T04:27:50.932Z,15.38
2023-01-26T04:30:19.674Z,15.48
2023-01-26T04:32:48.199Z,15.43
2023-01-26T04:35:18.086Z,15.48
2023-01-26T04:37:46.462Z,15.38
2023-01-26T04:40:15.149Z,16.08
2023-01-26T04:42:43.538Z,16.40
2023-01-26T04:45:12.304Z,15.48
2023-01-26T04:47:40.790Z,15.70
2023-01-26T04:50:10.824Z,14.98
2023-01-26T04:52:40.489Z,16.13
2023-01-26T04:55:09.220Z,15.77
2023-01-26T04:57:37.572Z,16.58
2023-01-26T05:00:06.415Z,16.98
2023-01-26T05:02:35.190Z,15.75
2023-01-26T05:05:03.395Z,15.82
2023-01-26T05:07:31.458Z,16.48
2023-01-26T05:10:00.899Z,16.40
2023-01-26T05:12:35.660Z,16.15
2023-01-26T05:15:04.188Z,16.13
2023-01-26T05:17:32.592Z,15.75
2023-01-26T05:20:00.956Z,16.60
2023-01-26T05:22:29.419Z,15.57
2023-01-26T05:24:57.811Z,15.85
2023-01-26T05:27:27.326Z,16.00
2023-01-26T05:30:00.226Z,16.23
2023-01-26T05:32:28.721Z,15.93
2023-01-26T05:34:57.487Z,15.65
2023-01-26T05:37:26.913Z,15.02
2023-01-26T05:39:55.090Z,15.38
2023-01-26T05:42:23.960Z,16.02
2023-01-26T05:44:53.824Z,16.20
2023-01-26T05:47:22.103Z,14.77
2023-01-26T05:49:51.419Z,15.63
2023-01-26T05:52:21.283Z,12.02
2023-01-26T05:54:49.554Z,15.02
2023-01-26T05:57:18.026Z,14.20
2023-01-26T05:59:46.423Z,15.40
2023-01-26T06:02:16.019Z,15.90
2023-01-26T06:04:44.512Z,14.85
2023-01-26T06:07:13.695Z,21.70
2023-01-26T06:09:42.152Z,15.87
2023-01-26T06:12:18.226Z,19.63
2023-01-26T06:14:47.423Z,19.80
2023-01-26T06:17:18.513Z,20.17
2023-01-26T06:19:47.115Z,21.83
2023-01-26T06:22:15.790Z,19.40
2023-01-26T06:24:44.173Z,19.67
2023-01-26T06:27:15.485Z,20.70
2023-01-26T06:29:44.646Z,20.80
2023-01-26T06:32:13.188Z,20.30
2023-01-26T06:34:42.869Z,19.90
2023-01-26T06:37:14.433Z,20.52
2023-01-26T06:39:42.960Z,19.58
2023-01-26T06:42:13.040Z,21.10
2023-01-26T06:47:09.423Z,20.02
2023-01-26T06:49:37.783Z,20.35
2023-01-26T06:52:22.848Z,19.88
2023-01-26T06:54:51.523Z,19.95
2023-01-26T06:57:19.948Z,20.05
2023-01-26T06:59:48.327Z,20.10
2023-01-26T07:02:19.452Z,20.42
2023-01-26T07:04:47.931Z,18.67
2023-01-26T07:07:18.323Z,20.00
2023-01-26T07:09:46.785Z,19.85
2023-01-26T07:12:15.231Z,19.70
2023-01-26T07:14:43.592Z,21.05
2023-01-26T07:17:11.991Z,20.17
2023-01-26T07:19:40.525Z,20.33
2023-01-26T07:22:09.111Z,30.55
2023-01-26T07:24:39.699Z,35.13
2023-01-26T07:27:08.106Z,32.10
2023-01-26T07:29:36.483Z,32.90
2023-01-26T07:32:04.953Z,32.40
2023-01-26T07:34:34.019Z,32.95
2023-01-26T07:37:02.459Z,30.77
2023-01-26T07:39:30.843Z,30.58
2023-01-26T07:42:00.337Z,30.50
2023-01-26T07:44:28.537Z,23.08
2023-01-26T07:46:57.869Z,29.83
2023-01-26T07:49:26.216Z,29.48
2023-01-26T07:51:54.615Z,29.05
2023-01-26T07:54:23.275Z,29.77
2023-01-26T16:32:29.448Z,6.72
2023-01-26T16:34:57.898Z,7.00
2023-01-26T16:37:26.113Z,8.05
2023-01-26T16:39:54.513Z,7.07
2023-01-26T16:42:23.195Z,6.22
2023-01-26T16:44:51.425Z,6.15
2023-01-26T16:47:19.829Z,7.07
2023-01-26T16:49:49.333Z,6.70
2023-01-26T16:52:17.464Z,6.68
2023-01-26T16:54:48.344Z,6.68
2023-01-26T16:57:16.753Z,6.35
2023-01-26T16:59:44.886Z,6.40
2023-01-26T17:02:23.566Z,6.25
2023-01-26T17:04:53.663Z,6.22
2023-01-26T17:09:50.839Z,6.05
2023-01-26T17:12:19.033Z,6.90
2023-01-26T17:14:47.213Z,6.00
2023-01-26T17:17:15.747Z,6.18
2023-01-26T17:19:43.993Z,5.95
2023-01-26T17:22:13.499Z,5.95
2023-01-26T17:24:42.739Z,6.97
2023-01-26T17:27:11.999Z,6.43
2023-01-26T17:29:42.205Z,6.00
2023-01-26T17:32:10.372Z,6.43
2023-01-26T17:34:38.508Z,6.50
2023-01-26T17:37:06.599Z,6.65
2023-01-26T17:39:36.159Z,6.13
2023-01-26T17:42:04.560Z,5.97
2023-01-26T17:44:32.694Z,6.15
2023-01-26T17:47:00.903Z,6.10
2023-01-26T17:49:29.030Z,6.43
2023-01-26T17:51:57.168Z,6.28
2023-01-26T17:54:25.559Z,6.15
2023-01-26T17:56:55.551Z,6.13
2023-01-26T18:01:51.872Z,5.80
2023-01-26T18:04:20.296Z,5.75
2023-01-26T18:06:48.405Z,5.78
2023-01-26T18:09:16.528Z,5.78
2023-01-26T18:11:44.680Z,5.60
2023-01-26T18:14:14.229Z,5.75
2023-01-26T18:16:42.423Z,5.60
2023-01-26T18:19:10.752Z,5.78
2023-01-26T18:21:39.125Z,5.32
2023-01-26T18:24:08.485Z,6.30
2023-01-26T18:26:38.422Z,4.35
2023-01-26T18:29:07.865Z,5.43
2023-01-26T18:31:40.625Z,5.57
2023-01-26T18:34:09.100Z,5.47
2023-01-26T18:36:37.216Z,5.50
2023-01-26T18:39:06.550Z,5.53
2023-01-26T18:41:35.293Z,4.78
2023-01-26T18:44:04.229Z,5.25
2023-01-26T18:46:32.494Z,5.35
2023-01-26T18:49:03.509Z,5.20
2023-01-26T18:51:34.395Z,5.22
2023-01-26T18:54:04.079Z,5.07
2023-01-26T18:56:32.575Z,5.78
2023-01-26T18:59:01.186Z,5.20
2023-01-26T19:01:29.447Z,5.38
2023-01-26T19:03:58.743Z,5.03
2023-01-26T19:06:30.922Z,5.47
2023-01-26T19:09:01.407Z,4.85
2023-01-26T19:11:31.872Z,5.25
2023-01-26T19:14:00.848Z,5.43
2023-01-26T19:16:30.087Z,5.25
2023-01-26T19:18:58.700Z,4.70
2023-01-26T19:21:28.954Z,4.68
2023-01-26T19:24:02.406Z,5.00
2023-01-26T19:26:30.842Z,4.90
2023-01-26T19:29:00.211Z,4.75
2023-01-26T19:31:29.514Z,5.13
2023-01-26T19:33:59.397Z,5.10
2023-01-26T19:36:31.327Z,4.50
2023-01-26T19:38:59.667Z,4.82
2023-01-26T19:41:28.272Z,4.93
2023-01-26T19:43:56.447Z,4.90
2023-01-26T19:46:25.163Z,4.78
2023-01-26T19:48:53.278Z,4.70
2023-01-26T19:51:23.705Z,5.05
2023-01-26T19:53:56.501Z,4.72
2023-01-26T19:56:26.360Z,5.03
2023-01-26T19:58:56.309Z,4.70
2023-01-26T20:03:54.567Z,4.93
2023-01-26T20:06:25.186Z,5.07
2023-01-26T20:08:55.697Z,4.35
2023-01-26T20:11:27.282Z,4.55
2023-01-26T20:13:56.749Z,4.80
2023-01-26T20:16:29.876Z,4.45
2023-01-26T20:18:59.208Z,4.30
2023-01-26T20:21:28.212Z,4.55
2023-01-26T20:23:57.821Z,4.60
2023-01-26T20:26:27.805Z,4.88
2023-01-26T20:28:58.242Z,4.45
2023-01-26T20:31:28.220Z,4.43
2023-01-26T20:33:58.260Z,4.90
2023-01-26T20:38:55.700Z,4.90
2023-01-26T20:41:27.389Z,5.00
2023-01-26T20:44:00.535Z,4.43
2023-01-26T20:46:30.945Z,4.90
2023-01-26T20:48:59.358Z,4.22
2023-01-26T20:51:30.728Z,4.80
2023-01-26T20:53:59.824Z,4.80
2023-01-26T20:56:34.453Z,4.53
2023-01-26T20:59:03.319Z,4.60
2023-01-26T21:01:33.843Z,4.93
2023-01-26T21:04:02.503Z,4.28
2023-01-26T21:06:31.296Z,4.10
2023-01-26T21:09:01.031Z,4.75
2023-01-26T21:11:32.345Z,4.35
2023-01-26T21:14:02.617Z,4.50
2023-01-26T21:16:31.962Z,4.35
2023-01-26T21:19:00.546Z,4.63
2023-01-26T21:21:29.054Z,3.97
2023-01-26T21:23:57.313Z,3.88
2023-01-26T21:26:27.904Z,4.38
2023-01-26T21:28:59.686Z,3.97
2023-01-26T21:31:30.245Z,4.28
2023-01-26T21:33:58.997Z,4.65
2023-01-26T21:36:30.890Z,5.30
2023-01-26T21:39:00.627Z,5.38
2023-01-26T21:41:47.905Z,4.65
2023-01-26T21:44:19.412Z,6.10
2023-01-26T21:46:48.912Z,5.50
2023-01-26T21:49:17.712Z,5.07
2023-01-26T21:52:03.743Z,5.35
2023-01-26T21:54:32.372Z,5.88
2023-01-26T21:57:01.143Z,5.78
2023-01-26T21:59:30.052Z,6.30
2023-01-26T22:01:59.722Z,5.78
2023-01-26T22:04:30.612Z,4.97
2023-01-26T22:06:59.835Z,5.80
2023-01-26T22:09:28.427Z,5.60
2023-01-26T22:11:56.957Z,4.93
2023-01-26T22:14:26.886Z,5.28
2023-01-26T22:16:56.524Z,4.97
2023-01-26T22:19:25.965Z,5.65
2023-01-26T22:21:54.486Z,4.95
2023-01-26T22:24:23.051Z,5.30
2023-01-26T22:26:51.560Z,4.80
2023-01-26T22:29:20.037Z,5.10
2023-01-26T22:31:50.420Z,5.18
2023-01-26T22:34:20.111Z,5.00
2023-01-26T22:36:48.558Z,5.25
2023-01-26T22:39:17.075Z,4.95
2023-01-26T22:41:45.747Z,5.38
2023-01-26T22:44:14.232Z,5.10
2023-01-26T22:46:42.731Z,4.50
2023-01-26T22:49:11.611Z,4.85
2023-01-26T22:51:41.529Z,4.53
2023-01-26T22:54:10.450Z,4.50
2023-01-26T22:56:38.939Z,4.30
2023-01-26T22:59:07.375Z,4.35
2023-01-26T23:01:35.861Z,4.30
2023-01-26T23:04:04.382Z,4.45
2023-01-26T23:06:32.915Z,4.13
2023-01-26T23:09:04.689Z,4.05
2023-01-26T23:11:33.331Z,4.03
2023-01-26T23:14:02.141Z,4.20
2023-01-26T23:16:30.773Z,3.97
2023-01-26T23:19:00.193Z,3.97
2023-01-26T23:21:29.998Z,4.47
2023-01-26T23:23:58.689Z,4.55
2023-01-26T23:26:28.336Z,4.63
2023-01-26T23:28:56.894Z,4.60
2023-01-26T23:31:25.349Z,4.50
2023-01-26T23:33:53.907Z,4.10
2023-01-26T23:36:22.555Z,4.15
2023-01-26T23:38:51.285Z,4.15
2023-01-26T23:41:19.892Z,4.30
2023-01-26T23:43:49.381Z,4.65
2023-01-26T23:46:17.571Z,4.70
2023-01-26T23:48:46.055Z,4.47
2023-01-26T23:51:14.438Z,3.97
2023-01-26T23:53:42.885Z,4.10
2023-01-26T23:56:18.011Z,3.67
2023-01-26T23:58:46.933Z,3.83
